sensor_id;sensor_type;location;lat;lon;timestamp;P1;durP1;ratioP1;P2;durP2;ratioP2
39930;SDS011;26635;-35.248;149.138;2022-08-25T00:00:20;0.60;;;0.00;;
39930;SDS011;26635;-35.248;149.138;2022-08-25T00:02:53;0.20;;;0.00;;
39930;SDS011;26635;-35.248;149.138;2022-08-25T00:05:28;0.10;;;0.00;;
39930;SDS011;26635;-35.248;149.138;2022-08-25T00:08:00;0.10;;;0.00;;
39930;SDS011;26635;-35.248;149.138;2022-08-25T00:10:36;0.00;;;0.00;;
39930;SDS011;26635;-35.248;149.138;2022-08-25T00:13:28;0.22;;;0.00;;
39930;SDS011;26635;-35.248;149.138;2022-08-25T00:16:01;0.00;;;0.00;;
39930;SDS011;26635;-35.248;149.138;2022-08-25T00:18:33;0.00;;;0.00;;
39930;SDS011;26635;-35.248;149.138;2022-08-25T00:21:06;0.80;;;0.00;;
39930;SDS011;26635;-35.248;149.138;2022-08-25T00:23:39;0.32;;;0.00;;
39930;SDS011;26635;-35.248;149.138;2022-08-25T00:26:12;0.08;;;0.00;;
39930;SDS011;26635;-35.248;149.138;2022-08-25T00:28:43;0.00;;;0.00;;
39930;SDS011;26635;-35.248;149.138;2022-08-25T00:31:16;0.00;;;0.00;;
39930;SDS011;26635;-35.248;149.138;2022-08-25T00:33:50;0.00;;;0.00;;
39930;SDS011;26635;-35.248;149.138;2022-08-25T00:36:23;0.50;;;0.50;;
39930;SDS011;26635;-35.248;149.138;2022-08-25T00:38:58;0.08;;;0.00;;
39930;SDS011;26635;-35.248;149.138;2022-08-25T00:41:29;0.00;;;0.00;;
39930;SDS011;26635;-35.248;149.138;2022-08-25T00:44:06;0.00;;;0.00;;
39930;SDS011;26635;-35.248;149.138;2022-08-25T00:46:40;0.00;;;0.00;;
39930;SDS011;26635;-35.248;149.138;2022-08-25T00:49:16;0.00;;;0.00;;
39930;SDS011;26635;-35.248;149.138;2022-08-25T00:54:37;0.00;;;0.00;;
39930;SDS011;26635;-35.248;149.138;2022-08-25T00:57:11;0.00;;;0.00;;
39930;SDS011;26635;-35.248;149.138;2022-08-25T01:00:00;0.00;;;0.00;;
39930;SDS011;26635;-35.248;149.138;2022-08-25T01:02:35;0.00;;;0.00;;
39930;SDS011;26635;-35.248;149.138;2022-08-25T01:05:08;0.00;;;0.00;;
39930;SDS011;26635;-35.248;149.138;2022-08-25T01:07:40;0.00;;;0.00;;
39930;SDS011;26635;-35.248;149.138;2022-08-25T01:10:14;0.00;;;0.00;;
39930;SDS011;26635;-35.248;149.138;2022-08-25T01:12:47;0.00;;;0.00;;
39930;SDS011;26635;-35.248;149.138;2022-08-25T01:15:20;0.00;;;0.00;;
39930;SDS011;26635;-35.248;149.138;2022-08-25T01:17:53;0.00;;;0.00;;
39930;SDS011;26635;-35.248;149.138;2022-08-25T01:20:27;0.22;;;0.00;;
39930;SDS011;26635;-35.248;149.138;2022-08-25T01:22:59;0.17;;;0.00;;
39930;SDS011;26635;-35.248;149.138;2022-08-25T01:28:33;0.00;;;0.00;;
39930;SDS011;26635;-35.248;149.138;2022-08-25T01:31:05;0.00;;;0.00;;
39930;SDS011;26635;-35.248;149.138;2022-08-25T01:33:50;0.00;;;0.00;;
39930;SDS011;26635;-35.248;149.138;2022-08-25T01:36:22;0.10;;;0.00;;
39930;SDS011;26635;-35.248;149.138;2022-08-25T01:38:56;0.00;;;0.00;;
39930;SDS011;26635;-35.248;149.138;2022-08-25T01:44:04;0.00;;;0.00;;
39930;SDS011;26635;-35.248;149.138;2022-08-25T01:46:42;0.00;;;0.00;;
39930;SDS011;26635;-35.248;149.138;2022-08-25T01:49:14;0.10;;;0.00;;
39930;SDS011;26635;-35.248;149.138;2022-08-25T01:51:54;0.00;;;0.00;;
39930;SDS011;26635;-35.248;149.138;2022-08-25T01:54:28;0.00;;;0.00;;
39930;SDS011;26635;-35.248;149.138;2022-08-25T01:57:00;0.00;;;0.00;;
39930;SDS011;26635;-35.248;149.138;2022-08-25T01:59:31;0.00;;;0.00;;
39930;SDS011;26635;-35.248;149.138;2022-08-25T02:02:03;0.00;;;0.00;;
39930;SDS011;26635;-35.248;149.138;2022-08-25T02:04:36;0.00;;;0.00;;
39930;SDS011;26635;-35.248;149.138;2022-08-25T02:07:10;0.10;;;0.00;;
39930;SDS011;26635;-35.248;149.138;2022-08-25T02:09:41;0.00;;;0.00;;
39930;SDS011;26635;-35.248;149.138;2022-08-25T02:15:43;0.00;;;0.00;;
39930;SDS011;26635;-35.248;149.138;2022-08-25T02:18:17;0.00;;;0.00;;
39930;SDS011;26635;-35.248;149.138;2022-08-25T02:20:48;0.00;;;0.00;;
39930;SDS011;26635;-35.248;149.138;2022-08-25T02:23:20;0.25;;;0.25;;
39930;SDS011;26635;-35.248;149.138;2022-08-25T02:25:51;0.10;;;0.00;;
39930;SDS011;26635;-35.248;149.138;2022-08-25T02:28:22;0.10;;;0.10;;
39930;SDS011;26635;-35.248;149.138;2022-08-25T02:30:54;0.00;;;0.00;;
39930;SDS011;26635;-35.248;149.138;2022-08-25T02:33:27;0.00;;;0.00;;
39930;SDS011;26635;-35.248;149.138;2022-08-25T02:36:00;0.00;;;0.00;;
39930;SDS011;26635;-35.248;149.138;2022-08-25T02:38:31;0.00;;;0.00;;
39930;SDS011;26635;-35.248;149.138;2022-08-25T02:41:13;0.00;;;0.00;;
39930;SDS011;26635;-35.248;149.138;2022-08-25T02:43:47;0.10;;;0.00;;
39930;SDS011;26635;-35.248;149.138;2022-08-25T02:46:20;0.55;;;0.00;;
39930;SDS011;26635;-35.248;149.138;2022-08-25T02:48:53;0.00;;;0.00;;
39930;SDS011;26635;-35.248;149.138;2022-08-25T02:51:26;0.55;;;0.00;;
39930;SDS011;26635;-35.248;149.138;2022-08-25T02:53:58;0.00;;;0.00;;
39930;SDS011;26635;-35.248;149.138;2022-08-25T02:56:30;0.00;;;0.00;;
39930;SDS011;26635;-35.248;149.138;2022-08-25T02:59:02;0.20;;;0.00;;
39930;SDS011;26635;-35.248;149.138;2022-08-25T03:01:34;0.00;;;0.00;;
39930;SDS011;26635;-35.248;149.138;2022-08-25T03:04:07;0.20;;;0.00;;
39930;SDS011;26635;-35.248;149.138;2022-08-25T03:06:38;0.10;;;0.00;;
39930;SDS011;26635;-35.248;149.138;2022-08-25T03:09:09;0.10;;;0.00;;
39930;SDS011;26635;-35.248;149.138;2022-08-25T03:11:40;0.00;;;0.00;;
39930;SDS011;26635;-35.248;149.138;2022-08-25T03:14:11;0.00;;;0.00;;
39930;SDS011;26635;-35.248;149.138;2022-08-25T03:16:43;0.10;;;0.00;;
39930;SDS011;26635;-35.248;149.138;2022-08-25T03:19:15;0.00;;;0.00;;
39930;SDS011;26635;-35.248;149.138;2022-08-25T03:21:46;0.03;;;0.00;;
39930;SDS011;26635;-35.248;149.138;2022-08-25T03:24:17;0.00;;;0.00;;
39930;SDS011;26635;-35.248;149.138;2022-08-25T03:26:48;0.00;;;0.00;;
39930;SDS011;26635;-35.248;149.138;2022-08-25T03:29:24;0.10;;;0.00;;
39930;SDS011;26635;-35.248;149.138;2022-08-25T03:31:57;0.10;;;0.00;;
39930;SDS011;26635;-35.248;149.138;2022-08-25T03:34:29;0.00;;;0.00;;
39930;SDS011;26635;-35.248;149.138;2022-08-25T03:37:00;0.20;;;0.00;;
39930;SDS011;26635;-35.248;149.138;2022-08-25T03:39:32;0.10;;;0.00;;
39930;SDS011;26635;-35.248;149.138;2022-08-25T03:42:04;0.10;;;0.00;;
39930;SDS011;26635;-35.248;149.138;2022-08-25T03:44:36;0.00;;;0.00;;
39930;SDS011;26635;-35.248;149.138;2022-08-25T03:47:08;0.00;;;0.00;;
39930;SDS011;26635;-35.248;149.138;2022-08-25T03:49:40;0.10;;;0.00;;
39930;SDS011;26635;-35.248;149.138;2022-08-25T03:52:11;0.10;;;0.00;;
39930;SDS011;26635;-35.248;149.138;2022-08-25T03:54:42;0.00;;;0.00;;
39930;SDS011;26635;-35.248;149.138;2022-08-25T03:57:14;0.00;;;0.00;;
39930;SDS011;26635;-35.248;149.138;2022-08-25T03:59:46;0.98;;;0.00;;
39930;SDS011;26635;-35.248;149.138;2022-08-25T04:02:17;0.80;;;0.00;;
39930;SDS011;26635;-35.248;149.138;2022-08-25T04:04:47;1.23;;;0.20;;
39930;SDS011;26635;-35.248;149.138;2022-08-25T04:07:21;0.00;;;0.00;;
39930;SDS011;26635;-35.248;149.138;2022-08-25T04:09:55;0.00;;;0.00;;
39930;SDS011;26635;-35.248;149.138;2022-08-25T04:12:26;0.00;;;0.00;;
39930;SDS011;26635;-35.248;149.138;2022-08-25T04:14:59;2.08;;;0.00;;
39930;SDS011;26635;-35.248;149.138;2022-08-25T04:17:32;0.75;;;0.08;;
39930;SDS011;26635;-35.248;149.138;2022-08-25T04:20:06;0.00;;;0.00;;
39930;SDS011;26635;-35.248;149.138;2022-08-25T04:22:40;0.13;;;0.00;;
39930;SDS011;26635;-35.248;149.138;2022-08-25T04:25:11;0.22;;;0.00;;
39930;SDS011;26635;-35.248;149.138;2022-08-25T04:27:42;1.05;;;0.10;;
39930;SDS011;26635;-35.248;149.138;2022-08-25T04:30:13;1.00;;;0.00;;
39930;SDS011;26635;-35.248;149.138;2022-08-25T04:32:44;0.65;;;0.00;;
39930;SDS011;26635;-35.248;149.138;2022-08-25T04:35:16;0.00;;;0.00;;
39930;SDS011;26635;-35.248;149.138;2022-08-25T04:37:47;0.00;;;0.00;;
39930;SDS011;26635;-35.248;149.138;2022-08-25T04:40:17;1.15;;;0.00;;
39930;SDS011;26635;-35.248;149.138;2022-08-25T04:42:55;0.03;;;0.00;;
39930;SDS011;26635;-35.248;149.138;2022-08-25T04:45:26;0.08;;;0.00;;
39930;SDS011;26635;-35.248;149.138;2022-08-25T04:47:57;0.00;;;0.00;;
39930;SDS011;26635;-35.248;149.138;2022-08-25T04:50:29;0.03;;;0.00;;
39930;SDS011;26635;-35.248;149.138;2022-08-25T04:53:01;0.00;;;0.00;;
39930;SDS011;26635;-35.248;149.138;2022-08-25T04:55:44;0.10;;;0.00;;
39930;SDS011;26635;-35.248;149.138;2022-08-25T04:58:18;0.00;;;0.00;;
39930;SDS011;26635;-35.248;149.138;2022-08-25T05:00:49;0.00;;;0.00;;
39930;SDS011;26635;-35.248;149.138;2022-08-25T05:03:21;0.65;;;0.00;;
39930;SDS011;26635;-35.248;149.138;2022-08-25T05:05:51;0.10;;;0.00;;
39930;SDS011;26635;-35.248;149.138;2022-08-25T05:08:25;0.25;;;0.00;;
39930;SDS011;26635;-35.248;149.138;2022-08-25T05:10:58;0.00;;;0.00;;
39930;SDS011;26635;-35.248;149.138;2022-08-25T05:13:35;1.55;;;0.00;;
39930;SDS011;26635;-35.248;149.138;2022-08-25T05:16:06;0.98;;;0.10;;
39930;SDS011;26635;-35.248;149.138;2022-08-25T05:18:38;1.27;;;0.08;;
39930;SDS011;26635;-35.248;149.138;2022-08-25T05:21:19;0.15;;;0.00;;
39930;SDS011;26635;-35.248;149.138;2022-08-25T05:23:53;1.25;;;0.10;;
39930;SDS011;26635;-35.248;149.138;2022-08-25T05:26:29;0.00;;;0.00;;
39930;SDS011;26635;-35.248;149.138;2022-08-25T05:29:02;0.73;;;0.00;;
39930;SDS011;26635;-35.248;149.138;2022-08-25T05:31:33;0.00;;;0.00;;
39930;SDS011;26635;-35.248;149.138;2022-08-25T05:34:09;0.05;;;0.03;;
39930;SDS011;26635;-35.248;149.138;2022-08-25T05:36:42;1.80;;;0.40;;
39930;SDS011;26635;-35.248;149.138;2022-08-25T05:39:12;0.00;;;0.00;;
39930;SDS011;26635;-35.248;149.138;2022-08-25T05:41:45;0.00;;;0.00;;
39930;SDS011;26635;-35.248;149.138;2022-08-25T05:44:18;0.13;;;0.00;;
39930;SDS011;26635;-35.248;149.138;2022-08-25T05:46:48;0.05;;;0.00;;
39930;SDS011;26635;-35.248;149.138;2022-08-25T05:49:19;1.00;;;0.40;;
39930;SDS011;26635;-35.248;149.138;2022-08-25T05:51:50;1.60;;;0.52;;
39930;SDS011;26635;-35.248;149.138;2022-08-25T05:54:21;0.20;;;0.10;;
39930;SDS011;26635;-35.248;149.138;2022-08-25T05:56:55;0.17;;;0.10;;
39930;SDS011;26635;-35.248;149.138;2022-08-25T05:59:26;1.48;;;0.32;;
39930;SDS011;26635;-35.248;149.138;2022-08-25T06:01:59;0.63;;;0.20;;
39930;SDS011;26635;-35.248;149.138;2022-08-25T06:04:50;0.13;;;0.10;;
39930;SDS011;26635;-35.248;149.138;2022-08-25T06:07:22;0.35;;;0.20;;
39930;SDS011;26635;-35.248;149.138;2022-08-25T06:09:53;1.10;;;0.40;;
39930;SDS011;26635;-35.248;149.138;2022-08-25T06:12:23;0.70;;;0.40;;
39930;SDS011;26635;-35.248;149.138;2022-08-25T06:14:54;1.98;;;0.82;;
39930;SDS011;26635;-35.248;149.138;2022-08-25T06:17:26;0.80;;;0.45;;
39930;SDS011;26635;-35.248;149.138;2022-08-25T06:19:58;5.25;;;2.35;;
39930;SDS011;26635;-35.248;149.138;2022-08-25T06:22:36;0.40;;;0.20;;
39930;SDS011;26635;-35.248;149.138;2022-08-25T06:25:07;0.30;;;0.03;;
39930;SDS011;26635;-35.248;149.138;2022-08-25T06:27:45;0.32;;;0.10;;
39930;SDS011;26635;-35.248;149.138;2022-08-25T06:30:17;0.38;;;0.35;;
39930;SDS011;26635;-35.248;149.138;2022-08-25T06:32:55;0.28;;;0.10;;
39930;SDS011;26635;-35.248;149.138;2022-08-25T06:35:26;0.30;;;0.00;;
39930;SDS011;26635;-35.248;149.138;2022-08-25T06:37:58;0.20;;;0.10;;
39930;SDS011;26635;-35.248;149.138;2022-08-25T06:40:30;0.10;;;0.10;;
39930;SDS011;26635;-35.248;149.138;2022-08-25T06:43:02;1.88;;;0.30;;
39930;SDS011;26635;-35.248;149.138;2022-08-25T06:45:38;0.57;;;0.30;;
39930;SDS011;26635;-35.248;149.138;2022-08-25T06:48:12;0.75;;;0.32;;
39930;SDS011;26635;-35.248;149.138;2022-08-25T06:50:44;1.48;;;0.32;;
39930;SDS011;26635;-35.248;149.138;2022-08-25T06:53:15;2.40;;;0.50;;
39930;SDS011;26635;-35.248;149.138;2022-08-25T06:55:54;0.60;;;0.30;;
39930;SDS011;26635;-35.248;149.138;2022-08-25T06:58:31;1.75;;;0.57;;
39930;SDS011;26635;-35.248;149.138;2022-08-25T07:01:37;2.65;;;0.50;;
39930;SDS011;26635;-35.248;149.138;2022-08-25T07:04:01;1.75;;;0.60;;
39930;SDS011;26635;-35.248;149.138;2022-08-25T07:06:39;1.25;;;0.60;;
39930;SDS011;26635;-35.248;149.138;2022-08-25T07:09:10;1.00;;;0.50;;
39930;SDS011;26635;-35.248;149.138;2022-08-25T07:11:43;1.48;;;0.80;;
39930;SDS011;26635;-35.248;149.138;2022-08-25T07:14:15;1.95;;;0.82;;
39930;SDS011;26635;-35.248;149.138;2022-08-25T07:16:48;1.70;;;0.77;;
39930;SDS011;26635;-35.248;149.138;2022-08-25T07:19:20;2.60;;;0.75;;
39930;SDS011;26635;-35.248;149.138;2022-08-25T07:21:52;1.92;;;0.60;;
39930;SDS011;26635;-35.248;149.138;2022-08-25T07:24:27;1.20;;;0.50;;
39930;SDS011;26635;-35.248;149.138;2022-08-25T07:26:58;2.50;;;0.80;;
39930;SDS011;26635;-35.248;149.138;2022-08-25T07:29:30;1.77;;;1.20;;
39930;SDS011;26635;-35.248;149.138;2022-08-25T07:32:26;3.63;;;1.15;;
39930;SDS011;26635;-35.248;149.138;2022-08-25T07:34:58;2.55;;;0.80;;
39930;SDS011;26635;-35.248;149.138;2022-08-25T07:37:51;2.20;;;0.90;;
39930;SDS011;26635;-35.248;149.138;2022-08-25T07:40:27;2.10;;;0.88;;
39930;SDS011;26635;-35.248;149.138;2022-08-25T07:43:11;2.17;;;1.05;;
39930;SDS011;26635;-35.248;149.138;2022-08-25T07:45:44;2.20;;;1.10;;
39930;SDS011;26635;-35.248;149.138;2022-08-25T07:48:17;2.22;;;1.30;;
39930;SDS011;26635;-35.248;149.138;2022-08-25T07:50:51;3.53;;;1.58;;
39930;SDS011;26635;-35.248;149.138;2022-08-25T07:53:38;2.75;;;1.17;;
39930;SDS011;26635;-35.248;149.138;2022-08-25T07:56:14;1.83;;;0.95;;
39930;SDS011;26635;-35.248;149.138;2022-08-25T07:58:51;1.95;;;0.90;;
39930;SDS011;26635;-35.248;149.138;2022-08-25T08:01:23;2.05;;;1.15;;
39930;SDS011;26635;-35.248;149.138;2022-08-25T08:03:55;2.75;;;1.33;;
39930;SDS011;26635;-35.248;149.138;2022-08-25T08:06:29;2.60;;;1.00;;
39930;SDS011;26635;-35.248;149.138;2022-08-25T08:09:02;2.75;;;1.30;;
39930;SDS011;26635;-35.248;149.138;2022-08-25T08:11:33;3.15;;;1.42;;
39930;SDS011;26635;-35.248;149.138;2022-08-25T08:14:19;3.22;;;1.63;;
39930;SDS011;26635;-35.248;149.138;2022-08-25T08:16:50;3.78;;;1.45;;
39930;SDS011;26635;-35.248;149.138;2022-08-25T08:19:21;2.85;;;1.45;;
39930;SDS011;26635;-35.248;149.138;2022-08-25T08:21:52;3.80;;;1.13;;
39930;SDS011;26635;-35.248;149.138;2022-08-25T08:24:29;2.83;;;1.42;;
39930;SDS011;26635;-35.248;149.138;2022-08-25T08:27:23;3.03;;;1.52;;
39930;SDS011;26635;-35.248;149.138;2022-08-25T08:29:58;3.70;;;1.83;;
39930;SDS011;26635;-35.248;149.138;2022-08-25T08:32:31;2.78;;;1.50;;
39930;SDS011;26635;-35.248;149.138;2022-08-25T08:35:21;3.40;;;1.58;;
39930;SDS011;26635;-35.248;149.138;2022-08-25T08:37:52;3.30;;;1.75;;
39930;SDS011;26635;-35.248;149.138;2022-08-25T08:40:24;5.45;;;2.10;;
39930;SDS011;26635;-35.248;149.138;2022-08-25T08:43:05;4.80;;;1.90;;
39930;SDS011;26635;-35.248;149.138;2022-08-25T08:45:51;6.07;;;2.80;;
39930;SDS011;26635;-35.248;149.138;2022-08-25T08:48:37;7.78;;;3.38;;
39930;SDS011;26635;-35.248;149.138;2022-08-25T08:51:24;4.80;;;2.40;;
39930;SDS011;26635;-35.248;149.138;2022-08-25T08:54:24;4.60;;;2.70;;
39930;SDS011;26635;-35.248;149.138;2022-08-25T08:57:06;2.70;;;1.65;;
39930;SDS011;26635;-35.248;149.138;2022-08-25T08:59:52;4.55;;;2.28;;
39930;SDS011;26635;-35.248;149.138;2022-08-25T09:02:35;3.50;;;1.52;;
39930;SDS011;26635;-35.248;149.138;2022-08-25T09:05:19;3.83;;;1.92;;
39930;SDS011;26635;-35.248;149.138;2022-08-25T09:07:54;4.18;;;2.20;;
39930;SDS011;26635;-35.248;149.138;2022-08-25T09:10:32;5.15;;;2.25;;
39930;SDS011;26635;-35.248;149.138;2022-08-25T09:13:38;4.93;;;2.08;;
39930;SDS011;26635;-35.248;149.138;2022-08-25T09:16:38;5.75;;;2.45;;
39930;SDS011;26635;-35.248;149.138;2022-08-25T09:19:42;5.20;;;2.42;;
39930;SDS011;26635;-35.248;149.138;2022-08-25T09:25:23;5.82;;;2.65;;
39930;SDS011;26635;-35.248;149.138;2022-08-25T09:33:56;3.22;;;2.08;;
39930;SDS011;26635;-35.248;149.138;2022-08-25T09:36:30;5.43;;;2.88;;
39930;SDS011;26635;-35.248;149.138;2022-08-25T09:39:04;4.90;;;2.47;;
39930;SDS011;26635;-35.248;149.138;2022-08-25T09:41:45;3.78;;;2.28;;
39930;SDS011;26635;-35.248;149.138;2022-08-25T09:47:06;5.45;;;;;
39930;SDS011;26635;-35.248;149.138;2022-08-25T09:50:00;10.35;;;5.28;;
39930;SDS011;26635;-35.248;149.138;2022-08-25T09:52:44;7.22;;;3.65;;
39930;SDS011;26635;-35.248;149.138;2022-08-25T09:55:26;4.90;;;2.83;;
39930;SDS011;26635;-35.248;149.138;2022-08-25T09:58:02;7.13;;;3.08;;
39930;SDS011;26635;-35.248;149.138;2022-08-25T10:01:05;5.30;;;2.67;;
39930;SDS011;26635;-35.248;149.138;2022-08-25T10:03:53;3.92;;;2.45;;
39930;SDS011;26635;-35.248;149.138;2022-08-25T10:06:41;5.53;;;2.63;;
39930;SDS011;26635;-35.248;149.138;2022-08-25T10:09:38;3.90;;;2.33;;
39930;SDS011;26635;-35.248;149.138;2022-08-25T10:12:19;5.45;;;2.85;;
39930;SDS011;26635;-35.248;149.138;2022-08-25T10:21:14;5.97;;;3.58;;
39930;SDS011;26635;-35.248;149.138;2022-08-25T10:23:50;6.23;;;3.90;;
39930;SDS011;26635;-35.248;149.138;2022-08-25T10:26:36;9.68;;;4.35;;
39930;SDS011;26635;-35.248;149.138;2022-08-25T10:32:18;7.50;;;4.38;;
39930;SDS011;26635;-35.248;149.138;2022-08-25T10:35:11;8.88;;;4.70;;
39930;SDS011;26635;-35.248;149.138;2022-08-25T10:37:52;10.38;;;4.90;;
39930;SDS011;26635;-35.248;149.138;2022-08-25T10:47:33;7.07;;;3.83;;
39930;SDS011;26635;-35.248;149.138;2022-08-25T10:50:13;5.68;;;3.42;;
39930;SDS011;26635;-35.248;149.138;2022-08-25T10:56:28;7.63;;;4.07;;
39930;SDS011;26635;-35.248;149.138;2022-08-25T11:05:27;6.97;;;3.42;;
39930;SDS011;26635;-35.248;149.138;2022-08-25T11:11:10;7.35;;;4.40;;
39930;SDS011;26635;-35.248;149.138;2022-08-25T11:14:18;6.25;;;3.03;;
39930;SDS011;26635;-35.248;149.138;2022-08-25T11:17:09;7.07;;;3.95;;
39930;SDS011;26635;-35.248;149.138;2022-08-25T11:19:56;7.88;;;3.38;;
39930;SDS011;26635;-35.248;149.138;2022-08-25T11:22:38;5.65;;;3.15;;
39930;SDS011;26635;-35.248;149.138;2022-08-25T11:30:39;6.25;;;3.40;;
39930;SDS011;26635;-35.248;149.138;2022-08-25T11:33:13;7.22;;;2.80;;
39930;SDS011;26635;-35.248;149.138;2022-08-25T11:41:16;5.78;;;3.35;;
39930;SDS011;26635;-35.248;149.138;2022-08-25T11:46:53;6.35;;;3.13;;
39930;SDS011;26635;-35.248;149.138;2022-08-25T11:57:50;6.10;;;2.75;;
39930;SDS011;26635;-35.248;149.138;2022-08-25T12:00:45;4.70;;;3.03;;
39930;SDS011;26635;-35.248;149.138;2022-08-25T12:06:25;6.40;;;3.10;;
39930;SDS011;26635;-35.248;149.138;2022-08-25T12:11:52;6.97;;;2.78;;
39930;SDS011;26635;-35.248;149.138;2022-08-25T12:27:19;5.82;;;3.00;;
39930;SDS011;26635;-35.248;149.138;2022-08-25T12:32:58;9.82;;;3.92;;
39930;SDS011;26635;-35.248;149.138;2022-08-25T12:41:19;5.60;;;3.30;;
39930;SDS011;26635;-35.248;149.138;2022-08-25T12:43:51;6.35;;;3.45;;
39930;SDS011;26635;-35.248;149.138;2022-08-25T12:46:37;5.88;;;2.95;;
39930;SDS011;26635;-35.248;149.138;2022-08-25T12:52:05;7.70;;;3.95;;
39930;SDS011;26635;-35.248;149.138;2022-08-25T12:55:03;8.45;;;4.38;;
39930;SDS011;26635;-35.248;149.138;2022-08-25T13:00:28;8.30;;;4.75;;
39930;SDS011;26635;-35.248;149.138;2022-08-25T13:14:42;8.25;;;4.60;;
39930;SDS011;26635;-35.248;149.138;2022-08-25T13:23:01;7.10;;;4.68;;
39930;SDS011;26635;-35.248;149.138;2022-08-25T13:25:32;8.10;;;4.35;;
39930;SDS011;26635;-35.248;149.138;2022-08-25T13:28:04;8.88;;;4.50;;
39930;SDS011;26635;-35.248;149.138;2022-08-25T13:30:37;11.00;;;5.05;;
39930;SDS011;26635;-35.248;149.138;2022-08-25T13:33:17;7.43;;;4.20;;
39930;SDS011;26635;-35.248;149.138;2022-08-25T13:35:52;9.02;;;4.97;;
39930;SDS011;26635;-35.248;149.138;2022-08-25T13:38:43;8.23;;;4.63;;
39930;SDS011;26635;-35.248;149.138;2022-08-25T13:41:16;7.25;;;3.90;;
39930;SDS011;26635;-35.248;149.138;2022-08-25T13:43:55;8.27;;;5.05;;
39930;SDS011;26635;-35.248;149.138;2022-08-25T13:46:28;8.73;;;4.95;;
39930;SDS011;26635;-35.248;149.138;2022-08-25T13:49:02;7.95;;;4.72;;
39930;SDS011;26635;-35.248;149.138;2022-08-25T13:51:35;9.70;;;5.40;;
39930;SDS011;26635;-35.248;149.138;2022-08-25T13:54:19;12.88;;;4.90;;
39930;SDS011;26635;-35.248;149.138;2022-08-25T13:59:53;10.13;;;4.82;;
39930;SDS011;26635;-35.248;149.138;2022-08-25T14:02:41;9.57;;;5.10;;
39930;SDS011;26635;-35.248;149.138;2022-08-25T14:05:27;12.23;;;5.70;;
39930;SDS011;26635;-35.248;149.138;2022-08-25T14:11:05;9.90;;;5.38;;
39930;SDS011;26635;-35.248;149.138;2022-08-25T14:13:43;7.93;;;4.55;;
39930;SDS011;26635;-35.248;149.138;2022-08-25T14:16:22;9.57;;;5.40;;
39930;SDS011;26635;-35.248;149.138;2022-08-25T14:18:55;9.85;;;5.38;;
39930;SDS011;26635;-35.248;149.138;2022-08-25T14:21:29;7.32;;;4.22;;
39930;SDS011;26635;-35.248;149.138;2022-08-25T14:24:06;5.57;;;3.33;;
39930;SDS011;26635;-35.248;149.138;2022-08-25T14:26:37;6.53;;;3.45;;
39930;SDS011;26635;-35.248;149.138;2022-08-25T14:29:20;6.65;;;3.20;;
39930;SDS011;26635;-35.248;149.138;2022-08-25T14:31:51;5.47;;;3.35;;
39930;SDS011;26635;-35.248;149.138;2022-08-25T14:34:23;5.10;;;3.17;;
39930;SDS011;26635;-35.248;149.138;2022-08-25T14:36:57;4.93;;;2.67;;
39930;SDS011;26635;-35.248;149.138;2022-08-25T14:39:29;5.88;;;2.63;;
39930;SDS011;26635;-35.248;149.138;2022-08-25T14:46:35;5.88;;;2.70;;
39930;SDS011;26635;-35.248;149.138;2022-08-25T14:49:39;5.60;;;2.75;;
39930;SDS011;26635;-35.248;149.138;2022-08-25T14:53:23;6.45;;;2.53;;
39930;SDS011;26635;-35.248;149.138;2022-08-25T14:57:00;6.65;;;3.03;;
39930;SDS011;26635;-35.248;149.138;2022-08-25T15:05:00;5.18;;;2.35;;
39930;SDS011;26635;-35.248;149.138;2022-08-25T22:12:58;0.82;;;0.20;;
39930;SDS011;26635;-35.248;149.138;2022-08-25T22:15:30;0.70;;;0.35;;
39930;SDS011;26635;-35.248;149.138;2022-08-25T22:18:00;2.33;;;0.20;;
39930;SDS011;26635;-35.248;149.138;2022-08-25T22:20:31;0.45;;;0.20;;
39930;SDS011;26635;-35.248;149.138;2022-08-25T22:23:05;1.65;;;0.32;;
39930;SDS011;26635;-35.248;149.138;2022-08-25T22:25:35;1.58;;;0.32;;
39930;SDS011;26635;-35.248;149.138;2022-08-25T22:28:06;1.00;;;0.30;;
39930;SDS011;26635;-35.248;149.138;2022-08-25T22:30:45;1.92;;;0.30;;
39930;SDS011;26635;-35.248;149.138;2022-08-25T22:33:25;1.75;;;0.50;;
39930;SDS011;26635;-35.248;149.138;2022-08-25T22:36:18;0.63;;;0.30;;
39930;SDS011;26635;-35.248;149.138;2022-08-25T22:38:54;1.00;;;0.30;;
39930;SDS011;26635;-35.248;149.138;2022-08-25T22:41:26;0.82;;;0.30;;
39930;SDS011;26635;-35.248;149.138;2022-08-25T22:44:12;0.93;;;0.30;;
39930;SDS011;26635;-35.248;149.138;2022-08-25T22:46:52;0.60;;;0.20;;
39930;SDS011;26635;-35.248;149.138;2022-08-25T22:49:22;1.00;;;0.52;;
39930;SDS011;26635;-35.248;149.138;2022-08-25T22:51:56;1.60;;;0.50;;
39930;SDS011;26635;-35.248;149.138;2022-08-25T22:54:26;0.20;;;0.10;;
39930;SDS011;26635;-35.248;149.138;2022-08-25T22:56:58;0.75;;;0.22;;
39930;SDS011;26635;-35.248;149.138;2022-08-25T22:59:32;1.63;;;0.20;;
39930;SDS011;26635;-35.248;149.138;2022-08-25T23:02:04;0.68;;;0.22;;
39930;SDS011;26635;-35.248;149.138;2022-08-25T23:04:35;0.88;;;0.28;;
39930;SDS011;26635;-35.248;149.138;2022-08-25T23:07:09;0.75;;;0.40;;
39930;SDS011;26635;-35.248;149.138;2022-08-25T23:09:40;0.68;;;0.20;;
39930;SDS011;26635;-35.248;149.138;2022-08-25T23:12:11;0.82;;;0.20;;
39930;SDS011;26635;-35.248;149.138;2022-08-25T23:14:42;0.40;;;0.20;;
39930;SDS011;26635;-35.248;149.138;2022-08-25T23:17:14;1.90;;;0.63;;
39930;SDS011;26635;-35.248;149.138;2022-08-25T23:19:46;0.63;;;0.15;;
39930;SDS011;26635;-35.248;149.138;2022-08-25T23:22:17;0.68;;;0.20;;
39930;SDS011;26635;-35.248;149.138;2022-08-25T23:24:49;2.15;;;0.25;;
39930;SDS011;26635;-35.248;149.138;2022-08-25T23:27:20;2.28;;;0.50;;
39930;SDS011;26635;-35.248;149.138;2022-08-25T23:29:51;0.35;;;0.28;;
39930;SDS011;26635;-35.248;149.138;2022-08-25T23:34:58;1.00;;;0.30;;
39930;SDS011;26635;-35.248;149.138;2022-08-25T23:37:28;0.82;;;0.17;;
39930;SDS011;26635;-35.248;149.138;2022-08-25T23:39:58;1.55;;;0.52;;
39930;SDS011;26635;-35.248;149.138;2022-08-25T23:42:29;1.60;;;1.27;;
39930;SDS011;26635;-35.248;149.138;2022-08-25T23:45:04;2.60;;;0.32;;
39930;SDS011;26635;-35.248;149.138;2022-08-25T23:47:37;0.93;;;0.40;;
39930;SDS011;26635;-35.248;149.138;2022-08-25T23:50:08;1.17;;;0.50;;
39930;SDS011;26635;-35.248;149.138;2022-08-25T23:52:40;0.73;;;0.30;;
39930;SDS011;26635;-35.248;149.138;2022-08-25T23:55:12;0.90;;;0.30;;
39930;SDS011;26635;-35.248;149.138;2022-08-25T23:57:44;1.92;;;0.30;;
